Time;durP1;ratioP1;P1;durP2;ratioP2;P2;SDS_P1;SDS_P2;PMS_P1;PMS_P2;Temp;Humidity;BMP_temperature;BMP_pressure;BME280_temperature;BME280_humidity;BME280_pressure;Samples;Min_cycle;Max_cycle;Signal;HPM_P1;HPM_P2
2021/03/26 00:01:10;;;;;;;23.88;11.35;;;;;;;6.16;83.50;101323.69;5091119;28;20476;-74
2021/03/26 00:03:37;;;;;;;26.15;11.85;;;;;;;6.12;83.48;101329.81;5054534;28;20012;-73
2021/03/26 00:06:06;;;;;;;27.65;12.60;;;;;;;6.06;83.36;101318.03;5088992;28;20488;-73
2021/03/26 00:08:31;;;;;;;25.75;12.15;;;;;;;6.03;83.42;101332.03;5082991;28;20536;-73
2021/03/26 00:10:57;;;;;;;26.23;12.30;;;;;;;5.98;83.42;101331.88;5090790;28;20180;-73
2021/03/26 00:13:22;;;;;;;32.40;11.88;;;;;;;5.97;83.80;101330.22;5074022;28;20035;-71
2021/03/26 00:15:47;;;;;;;27.25;13.13;;;;;;;5.94;83.77;101325.25;5089893;28;20024;-71
2021/03/26 00:18:14;;;;;;;30.95;13.60;;;;;;;5.92;83.48;101321.91;5090059;28;20023;-71
2021/03/26 00:20:40;;;;;;;33.58;15.60;;;;;;;5.91;83.50;101320.28;5089728;28;20107;-72
2021/03/26 00:23:06;;;;;;;34.40;17.10;;;;;;;5.90;83.44;101316.75;5090388;28;20507;-71
2021/03/26 00:25:32;;;;;;;43.60;19.25;;;;;;;5.89;83.57;101322.38;5090863;28;20526;-75
2021/03/26 00:27:58;;;;;;;43.20;19.33;;;;;;;5.90;83.54;101324.06;5090742;28;20036;-72
2021/03/26 00:30:24;;;;;;;41.67;20.42;;;;;;;5.91;83.81;101320.28;5089076;28;20020;-71
2021/03/26 00:32:50;;;;;;;56.00;20.65;;;;;;;5.90;83.73;101310.53;5090397;28;20031;-71
2021/03/26 00:35:16;;;;;;;50.83;21.85;;;;;;;5.91;83.99;101315.69;5073437;28;20106;-71
2021/03/26 00:37:42;;;;;;;56.05;21.88;;;;;;;5.91;84.00;101323.00;5089921;28;20089;-71
2021/03/26 00:40:09;;;;;;;49.22;21.83;;;;;;;5.91;84.00;101320.28;5091580;28;20657;-72
2021/03/26 00:42:34;;;;;;;52.72;21.00;;;;;;;5.91;84.11;101323.00;5051134;28;20391;-72
2021/03/26 00:44:59;;;;;;;55.38;22.08;;;;;;;5.91;84.10;101321.09;5060767;28;20066;-72
2021/03/26 00:47:25;;;;;;;54.33;24.33;;;;;;;5.91;84.15;101326.50;5093556;28;20031;-72
2021/03/26 00:49:51;;;;;;;61.08;25.40;;;;;;;5.91;84.25;101325.69;5089254;28;20036;-72
2021/03/26 00:52:16;;;;;;;55.85;26.17;;;;;;;5.89;84.28;101323.25;5094443;28;20016;-72
2021/03/26 00:54:41;;;;;;;59.22;24.70;;;;;;;5.89;84.49;101322.38;5095620;28;20020;-72
2021/03/26 00:57:07;;;;;;;65.05;26.15;;;;;;;5.88;84.78;101316.16;5089081;28;20427;-72
2021/03/26 00:59:32;;;;;;;65.18;25.75;;;;;;;5.88;84.57;101315.34;5095125;28;20386;-73
2021/03/26 01:01:58;;;;;;;56.22;26.98;;;;;;;5.91;84.71;101317.56;5081591;28;20032;-73
2021/03/26 01:04:23;;;;;;;53.08;25.25;;;;;;;5.93;84.78;101312.78;5091465;28;20020;-73
2021/03/26 01:06:49;;;;;;;56.70;25.05;;;;;;;5.93;84.88;101313.63;5092968;28;20392;-73
2021/03/26 01:09:14;;;;;;;57.28;24.95;;;;;;;5.93;85.04;101307.34;5094068;28;20023;-72
2021/03/26 01:11:40;;;;;;;59.90;23.75;;;;;;;5.92;84.96;101316.50;5090093;28;20180;-73
2021/03/26 01:14:09;;;;;;;60.88;27.52;;;;;;;5.88;84.98;101305.31;5077456;28;20024;-73
2021/03/26 01:16:35;;;;;;;61.90;25.98;;;;;;;5.88;84.94;101310.75;5074767;28;20085;-72
2021/03/26 01:19:02;;;;;;;58.70;24.80;;;;;;;5.87;84.94;101300.16;5095168;28;20031;-72
2021/03/26 01:21:29;;;;;;;54.92;26.05;;;;;;;5.85;85.12;101305.78;5072695;28;20020;-73
2021/03/26 01:23:55;;;;;;;58.53;26.40;;;;;;;5.82;85.21;101294.63;5067421;28;20089;-73
2021/03/26 01:26:20;;;;;;;58.90;24.77;;;;;;;5.77;85.06;101304.22;5092707;28;20465;-72
2021/03/26 01:28:46;;;;;;;57.35;26.90;;;;;;;5.74;85.21;101298.47;5092947;28;20454;-72
2021/03/26 01:31:11;;;;;;;53.67;24.50;;;;;;;5.71;85.31;101296.22;5092852;28;20085;-72
2021/03/26 01:33:37;;;;;;;63.10;27.38;;;;;;;5.68;85.28;101297.50;5093490;28;20393;-73
2021/03/26 01:36:04;;;;;;;60.20;26.48;;;;;;;5.68;85.29;101294.78;5092416;28;20028;-73
2021/03/26 01:38:30;;;;;;;54.22;26.77;;;;;;;5.69;85.47;101292.91;5093419;28;20029;-72
2021/03/26 01:40:58;;;;;;;74.60;28.55;;;;;;;5.70;85.61;101287.28;5090682;28;20502;-72
2021/03/26 01:43:31;;;;;;;68.68;30.70;;;;;;;5.70;85.81;101287.28;5072471;28;20052;-73
2021/03/26 01:45:57;;;;;;;56.38;28.98;;;;;;;5.71;85.77;101299.75;5092880;28;20028;-72
2021/03/26 01:48:34;;;;;;;62.53;26.25;;;;;;;5.72;85.84;101295.97;5091537;28;20024;-73
2021/03/26 01:51:01;;;;;;;61.75;29.67;;;;;;;5.72;85.66;101292.44;5092871;28;20392;-72
2021/03/26 01:53:26;;;;;;;67.00;29.33;;;;;;;5.71;85.87;101288.91;5092423;28;20027;-72
2021/03/26 01:55:53;;;;;;;67.63;29.13;;;;;;;5.69;85.76;101285.59;5093087;28;20024;-72
2021/03/26 01:58:24;;;;;;;65.25;30.80;;;;;;;5.66;85.96;101290.66;5093142;28;20158;-73
2021/03/26 02:00:54;;;;;;;69.88;31.05;;;;;;;5.63;85.97;101285.72;5076387;28;20497;-73
2021/03/26 02:03:21;;;;;;;77.88;32.22;;;;;;;5.60;86.13;101286.16;5089549;28;20043;-72
2021/03/26 02:05:47;;;;;;;71.45;30.98;;;;;;;5.60;86.12;101288.88;5093038;28;20031;-73
2021/03/26 02:08:13;;;;;;;77.78;32.45;;;;;;;5.57;86.13;101277.44;5091972;28;20024;-73
2021/03/26 02:10:40;;;;;;;79.55;32.83;;;;;;;5.61;86.17;101287.81;5094222;28;20077;-73
2021/03/26 02:13:06;;;;;;;75.20;32.10;;;;;;;5.62;86.36;101290.31;5091613;28;20019;-72
2021/03/26 02:15:43;;;;;;;73.47;32.55;;;;;;;5.64;86.36;101287.34;5092092;28;20032;-73
2021/03/26 02:18:09;;;;;;;83.60;35.15;;;;;;;5.64;86.24;101290.88;5075870;28;20027;-72
2021/03/26 02:20:34;;;;;;;87.28;36.20;;;;;;;5.64;86.31;101288.16;5083997;28;20028;-72
2021/03/26 02:23:16;;;;;;;80.55;34.78;;;;;;;5.64;86.66;101281.94;5093584;28;20666;-73
2021/03/26 02:25:41;;;;;;;84.40;36.97;;;;;;;5.64;86.58;101282.75;5091837;28;20388;-73
2021/03/26 02:28:06;;;;;;;82.28;35.88;;;;;;;5.63;86.65;101286.53;5092322;28;20032;-72
2021/03/26 02:30:36;;;;;;;83.38;35.63;;;;;;;5.63;86.75;101277.59;5091849;28;20453;-73
2021/03/26 02:33:01;;;;;;;79.90;32.85;;;;;;;5.61;86.87;101272.41;5093436;28;20024;-73
2021/03/26 02:35:27;;;;;;;87.88;36.42;;;;;;;5.60;86.94;101275.34;5091407;28;20066;-72
2021/03/26 02:38:00;;;;;;;93.65;39.00;;;;;;;5.58;87.01;101275.56;5094003;28;20111;-73
2021/03/26 02:40:46;;;;;;;97.65;38.38;;;;;;;5.59;87.45;101271.81;5089209;28;20047;-72
2021/03/26 02:43:38;;;;;;;103.13;39.80;;;;;;;5.61;87.28;101275.09;5092844;28;20039;-72
2021/03/26 02:46:07;;;;;;;100.28;40.42;;;;;;;5.64;87.69;101271.13;5082217;28;20557;-73
2021/03/26 02:48:59;;;;;;;104.90;42.70;;;;;;;5.67;87.50;101271.47;5090722;28;20047;-72
2021/03/26 02:52:05;;;;;;;96.78;38.78;;;;;;;5.70;87.52;101275.59;5042512;28;20179;-73
2021/03/26 02:54:46;;;;;;;100.28;41.05;;;;;;;5.70;87.97;101268.34;5048657;28;20078;-72
2021/03/26 02:57:13;;;;;;;114.60;44.30;;;;;;;5.71;87.63;101269.16;5076053;28;20027;-72
2021/03/26 02:59:49;;;;;;;102.75;43.00;;;;;;;5.71;87.79;101264.56;5091160;28;20020;-73
2021/03/26 03:02:14;;;;;;;111.18;45.47;;;;;;;5.72;87.92;101263.50;5070843;28;20063;-73
2021/03/26 03:04:53;;;;;;;109.50;42.70;;;;;;;5.71;88.01;101261.88;5086975;28;20453;-73
2021/03/26 03:07:28;;;;;;;101.53;43.33;;;;;;;5.71;88.08;101259.16;5071492;28;20447;-73
2021/03/26 03:09:56;;;;;;;108.03;45.03;;;;;;;5.71;88.05;101267.28;5089136;28;20031;-72
2021/03/26 03:12:30;;;;;;;100.60;42.42;;;;;;;5.72;88.02;101262.69;5075127;28;20097;-72
2021/03/26 03:15:15;;;;;;;103.25;41.92;;;;;;;5.75;88.24;101252.22;5083577;28;20032;-72
2021/03/26 03:17:41;;;;;;;107.55;45.03;;;;;;;5.75;88.19;101263.03;5092231;28;20044;-73
2021/03/26 03:20:21;;;;;;;109.28;46.53;;;;;;;5.74;88.16;101258.69;5091809;28;20150;-73
2021/03/26 03:23:02;;;;;;;102.07;41.47;;;;;;;5.75;88.15;101254.94;5092834;28;20084;-73
2021/03/26 03:25:28;;;;;;;110.32;45.15;;;;;;;5.77;88.25;101250.13;5089148;28;20023;-73
2021/03/26 03:28:09;;;;;;;104.35;44.17;;;;;;;5.82;88.38;101251.31;5071721;28;20032;-73
2021/03/26 03:30:52;;;;;;;102.18;41.72;;;;;;;5.84;88.22;101244.63;5091957;28;20096;-73
2021/03/26 03:33:36;;;;;;;106.95;44.55;;;;;;;5.89;88.20;101241.22;5092458;28;20020;-73
2021/03/26 03:36:04;;;;;;;108.07;41.55;;;;;;;5.90;88.09;101248.28;5089213;28;20059;-73
2021/03/26 03:38:47;;;;;;;99.85;41.20;;;;;;;5.85;88.00;101248.97;5073627;28;20076;-73
2021/03/26 03:41:19;;;;;;;105.25;41.50;;;;;;;5.84;88.11;101244.63;5090768;28;20570;-73
2021/03/26 03:43:56;;;;;;;105.80;43.20;;;;;;;5.82;88.06;101240.50;5090141;28;20081;-73
2021/03/26 03:46:25;;;;;;;107.05;42.22;;;;;;;5.81;88.17;101234.28;5091251;28;20052;-72
2021/03/26 03:48:56;;;;;;;105.00;42.58;;;;;;;5.83;88.25;101242.97;5088711;28;20092;-72
2021/03/26 03:51:27;;;;;;;98.60;42.28;;;;;;;5.84;88.09;101233.81;5091536;28;20028;-73
2021/03/26 03:53:55;;;;;;;98.78;41.85;;;;;;;5.86;88.21;101228.97;5073312;28;20540;-73
2021/03/26 03:56:41;;;;;;;112.65;43.22;;;;;;;5.87;88.12;101227.09;5090716;28;20043;-73
2021/03/26 03:59:14;;;;;;;106.32;40.88;;;;;;;5.84;88.11;101222.13;5088122;28;20042;-73
2021/03/26 04:01:53;;;;;;;95.53;37.65;;;;;;;5.79;88.16;101231.78;5070981;28;20027;-72
2021/03/26 04:04:44;;;;;;;108.38;43.65;;;;;;;5.79;88.19;101233.66;5072012;28;20060;-73
2021/03/26 04:07:16;;;;;;;118.25;46.00;;;;;;;5.78;88.38;101234.69;5073786;28;20107;-72
2021/03/26 04:09:46;;;;;;;100.53;43.95;;;;;;;5.76;88.46;101237.66;5090533;28;20031;-72
2021/03/26 04:12:14;;;;;;;119.55;45.83;;;;;;;5.74;88.38;101234.34;5053789;28;20024;-72
2021/03/26 04:14:51;;;;;;;116.20;48.85;;;;;;;5.71;88.37;101232.09;5088998;28;20024;-72
2021/03/26 04:17:38;;;;;;;123.30;49.40;;;;;;;5.71;88.51;101234.81;5080885;28;20091;-72
2021/03/26 04:20:35;;;;;;;127.18;49.25;;;;;;;5.71;88.71;101240.22;5090484;28;20038;-72
2021/03/26 04:23:13;;;;;;;132.75;49.22;;;;;;;5.70;88.55;101244.00;5088148;28;20077;-71
2021/03/26 04:25:40;;;;;;;127.15;47.75;;;;;;;5.67;88.44;101233.59;5070005;28;20043;-74
2021/03/26 04:28:11;;;;;;;127.40;51.13;;;;;;;5.66;88.73;101236.56;5073051;28;20119;-71
2021/03/26 04:30:40;;;;;;;123.43;49.53;;;;;;;5.65;88.78;101238.44;5070688;28;20385;-72
2021/03/26 04:33:06;;;;;;;116.55;47.75;;;;;;;5.66;88.58;101242.78;5064622;28;20157;-72
2021/03/26 04:35:32;;;;;;;122.50;50.78;;;;;;;5.66;88.63;101237.38;5090979;28;20032;-72
2021/03/26 04:38:25;;;;;;;129.20;50.53;;;;;;;5.66;88.78;101242.78;5089297;28;20028;-72
2021/03/26 04:40:56;;;;;;;123.75;48.58;;;;;;;5.66;88.61;101241.97;5086303;28;20079;-72
2021/03/26 04:43:35;;;;;;;125.40;48.75;;;;;;;5.65;88.75;101235.75;5072354;28;20112;-72
2021/03/26 04:46:32;;;;;;;132.00;50.90;;;;;;;5.66;88.69;101237.38;5073123;28;20455;-72
2021/03/26 04:49:24;;;;;;;119.30;45.63;;;;;;;5.66;88.67;101236.56;5087029;28;20051;-72
2021/03/26 04:51:57;;;;;;;130.07;50.08;;;;;;;5.63;88.72;101231.63;5085019;28;20481;-71
2021/03/26 04:54:39;;;;;;;136.65;50.38;;;;;;;5.57;88.56;101230.66;5075675;28;20094;-72
2021/03/26 04:57:12;;;;;;;;;;;;;;;5.54;88.50;101229.22;5083470;28;20028;-75
2021/03/26 05:00:05;;;;;;;124.25;47.75;;;;;;;5.51;88.59;101234.25;5076660;28;20371;-75
2021/03/26 05:02:30;;;;;;;126.50;46.30;;;;;;;5.48;88.81;101235.56;5089592;28;20028;-72
2021/03/26 05:04:59;;;;;;;125.32;49.50;;;;;;;5.51;88.72;101234.25;5088910;28;20039;-71
2021/03/26 05:07:32;;;;;;;128.90;50.67;;;;;;;5.50;88.75;101233.44;5088693;28;20052;-72
2021/03/26 05:09:58;;;;;;;125.53;49.60;;;;;;;5.52;88.65;101236.75;5070308;28;20032;-72
2021/03/26 05:12:26;;;;;;;141.80;54.80;;;;;;;5.54;88.73;101234.66;5065553;28;20028;-72
2021/03/26 05:14:55;;;;;;;137.38;52.10;;;;;;;5.54;88.90;101231.94;5091417;28;20376;-72
2021/03/26 05:17:32;;;;;;;144.15;56.08;;;;;;;5.56;88.93;101229.00;5071853;28;20377;-72
2021/03/26 05:20:22;;;;;;;126.22;45.28;;;;;;;5.55;88.69;101227.34;5090358;28;20048;-72
2021/03/26 05:22:56;;;;;;;129.23;51.45;;;;;;;5.55;88.72;101230.06;5088944;28;20023;-73
2021/03/26 05:25:28;;;;;;;143.52;50.85;;;;;;;5.53;88.76;101224.03;5091133;28;20103;-72
2021/03/26 05:27:54;;;;;;;142.00;50.30;;;;;;;5.54;88.87;101228.41;5089545;28;20073;-72
2021/03/26 05:30:30;;;;;;;134.25;46.58;;;;;;;5.53;88.98;101229.44;5073140;28;20036;-72
2021/03/26 05:33:20;;;;;;;144.25;50.72;;;;;;;5.54;88.92;101239.22;5072999;28;20508;-73
2021/03/26 05:35:53;;;;;;;125.10;49.10;;;;;;;5.54;89.03;101229.22;5075443;28;20386;-73
2021/03/26 05:38:25;;;;;;;125.43;46.85;;;;;;;5.53;89.21;101235.69;5092558;28;20039;-72
2021/03/26 05:41:23;;;;;;;137.45;51.47;;;;;;;5.54;89.12;101236.53;5075239;28;20059;-73
2021/03/26 05:44:12;;;;;;;140.77;50.95;;;;;;;5.56;89.20;101240.66;5085277;28;20040;-72
2021/03/26 05:46:50;;;;;;;132.52;48.47;;;;;;;5.56;89.18;101234.41;5093554;28;20201;-72
2021/03/26 05:49:37;;;;;;;135.80;52.08;;;;;;;5.57;89.29;101236.06;5091593;28;20047;-73
2021/03/26 05:52:25;;;;;;;133.25;53.17;;;;;;;5.59;89.33;101231.22;5093042;28;20063;-72
2021/03/26 05:55:05;;;;;;;152.50;56.70;;;;;;;5.60;89.50;101227.50;5089114;28;20023;-72
2021/03/26 05:58:04;;;;;;;125.90;49.28;;;;;;;5.63;89.49;101227.03;5090452;28;20028;-72
2021/03/26 06:00:38;;;;;;;140.55;52.72;;;;;;;5.65;89.33;101230.34;5093750;28;20027;-72
2021/03/26 06:03:33;;;;;;;118.65;46.65;;;;;;;5.67;89.52;101236.31;5081104;28;20031;-72
2021/03/26 06:06:22;;;;;;;130.40;51.08;;;;;;;5.70;89.46;101241.28;5090893;28;20473;-72
2021/03/26 06:08:51;;;;;;;145.80;55.85;;;;;;;5.71;89.48;101245.63;5090978;28;20523;-72
2021/03/26 06:11:41;;;;;;;136.48;50.70;;;;;;;5.71;89.44;101240.22;5090141;28;20032;-73
2021/03/26 06:14:31;;;;;;;126.25;47.83;;;;;;;5.72;89.50;101241.03;5081889;28;20132;-72
2021/03/26 06:17:17;;;;;;;138.90;54.03;;;;;;;5.74;89.58;101256.00;5087964;28;20028;-72
2021/03/26 06:20:08;;;;;;;154.60;56.78;;;;;;;5.76;89.64;101248.47;5090248;28;20494;-72
2021/03/26 06:22:52;;;;;;;161.35;57.78;;;;;;;5.78;89.56;101243.66;5088702;28;20396;-72
2021/03/26 06:25:28;;;;;;;149.90;56.10;;;;;;;5.81;89.28;101244.25;5086939;28;20050;-72
2021/03/26 06:27:56;;;;;;;143.32;52.63;;;;;;;5.85;89.58;101240.03;5088066;28;20031;-73
2021/03/26 06:30:26;;;;;;;155.27;58.95;;;;;;;5.87;89.35;101254.16;5087199;28;20051;-72
2021/03/26 06:33:16;;;;;;;161.93;60.60;;;;;;;5.88;89.37;101244.97;5071919;28;20110;-73
2021/03/26 06:35:58;;;;;;;172.45;59.78;;;;;;;5.89;89.23;101247.47;5082987;28;20495;-72
2021/03/26 06:38:34;;;;;;;156.10;56.60;;;;;;;5.88;89.27;101239.56;5088372;28;20032;-73
2021/03/26 06:41:22;;;;;;;146.68;55.00;;;;;;;5.88;89.39;101240.38;5065764;28;20044;-72
2021/03/26 06:44:14;;;;;;;156.38;56.35;;;;;;;5.92;89.62;101229.91;5088957;28;20036;-72
2021/03/26 06:46:49;;;;;;;140.00;48.95;;;;;;;5.94;89.23;101238.66;5070144;28;20569;-72
2021/03/26 06:49:49;;;;;;;165.63;55.78;;;;;;;5.89;89.17;101249.31;5072235;28;20196;-72
2021/03/26 06:52:47;;;;;;;154.50;54.42;;;;;;;5.91;89.37;101244.50;5085363;28;20051;-73
2021/03/26 06:55:50;;;;;;;158.20;56.55;;;;;;;5.95;89.22;101251.97;5064490;28;20039;-72
2021/03/26 06:58:34;;;;;;;;;;;;;;;6.00;89.36;101248.56;5090812;28;20441;-72
2021/03/26 07:01:07;;;;;;;139.68;53.53;;;;;;;6.00;89.12;101238.56;5093158;28;19919;-73
2021/03/26 07:04:06;;;;;;;126.25;47.85;;;;;;;6.01;89.35;101239.41;5074007;28;20042;-72
2021/03/26 07:06:49;;;;;;;148.45;53.83;;;;;;;6.05;89.14;101232.44;5087857;28;20025;-72
2021/03/26 07:09:32;;;;;;;144.30;55.42;;;;;;;6.06;89.38;101236.81;5090181;28;20027;-72
2021/03/26 07:11:58;;;;;;;139.27;53.05;;;;;;;6.09;89.22;101239.06;5088007;28;20024;-72
2021/03/26 07:14:42;;;;;;;144.75;50.88;;;;;;;6.11;89.19;101233.41;5090946;28;20035;-73
2021/03/26 07:17:26;;;;;;;140.23;51.33;;;;;;;6.12;89.51;101241.31;5087659;28;20032;-72
2021/03/26 07:20:03;;;;;;;131.27;48.90;;;;;;;6.17;89.38;101233.31;5090183;28;20028;-73
2021/03/26 07:23:05;;;;;;;147.55;54.08;;;;;;;6.18;89.47;101234.94;5083774;28;20409;-72
2021/03/26 07:26:04;;;;;;;132.80;54.35;;;;;;;6.21;89.35;101233.66;5091539;28;20024;-73
2021/03/26 07:28:49;;;;;;;149.13;58.30;;;;;;;6.25;89.00;101223.16;5084480;28;20019;-73
2021/03/26 07:31:24;;;;;;;125.82;47.85;;;;;;;6.26;89.07;101222.94;5072567;28;20146;-72
2021/03/26 07:33:52;;;;;;;160.55;56.45;;;;;;;6.24;89.17;101238.59;5074248;28;20480;-72
2021/03/26 07:36:24;;;;;;;136.15;52.95;;;;;;;6.25;89.05;101234.84;5091135;28;20384;-72
2021/03/26 07:39:04;;;;;;;142.50;51.35;;;;;;;6.23;89.18;101240.47;5087479;28;20032;-73
2021/03/26 07:42:04;;;;;;;112.22;41.88;;;;;;;6.19;89.16;101236.63;5088452;28;20436;-72
2021/03/26 07:44:57;;;;;;;119.82;46.20;;;;;;;6.21;88.91;101250.72;5071760;28;20144;-72
2021/03/26 07:47:41;;;;;;;108.22;41.47;;;;;;;6.20;88.94;101243.66;5085848;28;20016;-72
2021/03/26 07:50:29;;;;;;;91.88;37.83;;;;;;;6.19;89.13;101257.41;5086037;28;20031;-72
2021/03/26 07:53:19;;;;;;;134.73;50.03;;;;;;;6.16;88.92;101261.41;5083898;28;20050;-72
2021/03/26 07:56:03;;;;;;;128.13;45.28;;;;;;;6.17;89.20;101260.38;5088238;28;20397;-72
2021/03/26 07:59:06;;;;;;;98.05;36.95;;;;;;;6.07;88.89;101253.88;5085274;28;20024;-73
2021/03/26 08:01:58;;;;;;;123.50;44.50;;;;;;;5.97;89.16;101265.25;5090114;28;20456;-73
2021/03/26 08:04:39;;;;;;;116.43;47.55;;;;;;;5.93;89.24;101264.06;5085985;28;20016;-72
2021/03/26 08:07:26;;;;;;;135.48;49.47;;;;;;;5.90;89.09;101261.81;5064629;28;20048;-72
2021/03/26 08:10:04;;;;;;;106.75;41.15;;;;;;;5.88;89.56;101262.03;5090028;28;20431;-71
2021/03/26 08:12:32;;;;;;;127.65;45.38;;;;;;;5.92;89.60;101262.38;5089947;28;20114;-72
2021/03/26 08:15:35;;;;;;;109.93;44.15;;;;;;;5.82;89.30;101265.66;5078433;28;20024;-72
2021/03/26 08:18:34;;;;;;;88.55;33.05;;;;;;;5.68;89.45;101253.41;5069234;28;20028;-71
2021/03/26 08:21:10;;;;;;;121.10;43.70;;;;;;;5.61;89.54;101261.59;5091602;28;20559;-71
2021/03/26 08:24:13;;;;;;;90.13;32.92;;;;;;;5.61;89.69;101267.00;5088376;28;20103;-72
2021/03/26 08:27:01;;;;;;;121.18;40.47;;;;;;;5.59;89.75;101252.03;5088575;28;20024;-71
2021/03/26 08:29:44;;;;;;;141.30;47.80;;;;;;;5.54;89.84;101271.69;5083854;28;20381;-72
2021/03/26 08:33:03;;;;;;;112.78;37.38;;;;;;;5.55;89.85;101262.50;5085751;28;20063;-72
2021/03/26 08:35:48;;;;;;;121.30;41.78;;;;;;;5.53;90.06;101262.72;5028147;28;20629;-72
2021/03/26 08:38:27;;;;;;;120.47;42.75;;;;;;;5.52;90.22;101266.50;5079628;28;20047;-71
2021/03/26 08:40:54;;;;;;;129.35;42.88;;;;;;;5.51;90.28;101261.28;5089097;28;20638;-72
2021/03/26 08:43:19;;;;;;;124.05;42.15;;;;;;;5.53;90.31;101270.00;5086676;28;20385;-71
2021/03/26 08:46:10;;;;;;;116.97;40.33;;;;;;;5.55;90.18;101262.50;5088129;28;20024;-74
2021/03/26 08:48:38;;;;;;;137.85;47.88;;;;;;;5.64;90.65;101260.31;5050038;28;20032;-72
2021/03/26 08:51:48;;;;;;;138.50;49.13;;;;;;;5.68;90.72;101265.03;5089067;28;20028;-72
2021/03/26 08:54:22;;;;;;;146.82;49.67;;;;;;;5.76;90.71;101259.31;5084497;28;20024;-72
2021/03/26 08:57:09;;;;;;;153.18;53.75;;;;;;;5.81;90.75;101255.06;5089342;28;20023;-72
2021/03/26 08:59:58;;;;;;;143.60;53.47;;;;;;;5.87;90.72;101262.28;5087896;28;20032;-72
2021/03/26 09:02:42;;;;;;;106.20;42.97;;;;;;;5.93;90.77;101259.50;5087017;28;20103;-71
2021/03/26 09:05:42;;;;;;;131.27;51.83;;;;;;;5.97;90.42;101249.88;5092750;28;20036;-71
2021/03/26 09:08:10;;;;;;;131.73;48.85;;;;;;;6.06;90.69;101253.06;5066471;28;20046;-71
2021/03/26 09:11:06;;;;;;;137.15;49.38;;;;;;;6.13;90.29;101259.19;5093912;28;20044;-72
2021/03/26 09:14:02;;;;;;;104.90;38.75;;;;;;;6.18;90.42;101261.19;5089746;28;20024;-71
2021/03/26 09:16:31;;;;;;;91.25;34.88;;;;;;;6.18;90.20;101259.31;5094121;28;20028;-72
2021/03/26 09:19:12;;;;;;;105.90;39.95;;;;;;;6.21;90.08;101255.31;5076066;28;20020;-72
2021/03/26 09:21:52;;;;;;;122.32;45.92;;;;;;;6.31;90.37;101246.63;5060388;28;20027;-72
2021/03/26 09:24:36;;;;;;;93.78;38.70;;;;;;;6.45;90.19;101245.34;5085685;28;20028;-71
2021/03/26 09:27:12;;;;;;;107.10;43.08;;;;;;;6.49;90.00;101260.03;5094787;28;20044;-71
2021/03/26 09:29:56;;;;;;;108.93;44.67;;;;;;;6.60;89.74;101231.31;5093056;28;20023;-72
2021/03/26 09:32:31;;;;;;;109.10;39.85;;;;;;;6.71;89.81;101248.63;5092758;28;20019;-72
2021/03/26 09:35:08;;;;;;;97.35;40.58;;;;;;;6.75;89.34;101247.09;5084971;28;20052;-71
2021/03/26 09:37:52;;;;;;;103.13;44.15;;;;;;;6.78;89.27;101243.91;5093797;28;20103;-72
2021/03/26 09:40:29;;;;;;;92.55;38.92;;;;;;;6.80;88.96;101252.63;5092470;28;20078;-71
2021/03/26 09:43:16;;;;;;;97.60;40.22;;;;;;;6.81;88.89;101249.66;5093089;28;20489;-71
2021/03/26 09:45:43;;;;;;;101.97;39.00;;;;;;;6.88;88.42;101253.09;5090971;28;20058;-71
2021/03/26 09:48:17;;;;;;;89.50;34.15;;;;;;;6.96;88.47;101246.50;5093654;28;20047;-71
2021/03/26 09:51:03;;;;;;;90.30;38.42;;;;;;;7.01;87.93;101240.31;5108765;28;20469;-72
2021/03/26 09:53:28;;;;;;;81.88;34.70;;;;;;;7.03;87.82;101251.75;5086162;28;20040;-72
2021/03/26 09:55:54;;;;;;;80.50;34.30;;;;;;;7.00;87.32;101235.97;5074996;28;20466;-71
2021/03/26 09:58:36;;;;;;;81.97;34.17;;;;;;;6.98;86.98;101243.53;5093141;28;20115;-72
2021/03/26 10:01:11;;;;;;;75.53;29.90;;;;;;;6.97;86.91;101240.00;5080659;28;20028;-71
2021/03/26 10:03:47;;;;;;;75.85;34.67;;;;;;;6.96;86.76;101235.66;5086492;28;20024;-71
2021/03/26 10:06:13;;;;;;;83.10;34.53;;;;;;;6.94;86.06;101237.75;5070847;28;20123;-72
2021/03/26 10:11:31;;;;;;;78.43;33.80;;;;;;;6.80;85.95;101241.78;5082314;28;20034;-72
2021/03/26 10:13:57;;;;;;;67.47;30.73;;;;;;;6.78;86.12;101241.19;5070804;28;20033;-72
2021/03/26 10:17:01;;;;;;;68.82;27.42;;;;;;;6.76;86.04;101246.03;5084733;28;20024;-72
2021/03/26 10:19:31;;;;;;;71.80;33.40;;;;;;;6.74;86.15;101242.72;5088301;28;20020;-72
2021/03/26 10:21:57;;;;;;;65.03;28.92;;;;;;;6.75;86.01;101239.78;5052688;28;20742;-72
2021/03/26 10:24:34;;;;;;;75.30;34.08;;;;;;;6.65;86.02;101232.25;5075905;28;20020;-72
2021/03/26 10:27:15;;;;;;;71.70;30.35;;;;;;;6.60;85.67;101232.16;5071708;28;20031;-72
2021/03/26 10:29:45;;;;;;;67.70;30.05;;;;;;;6.57;85.97;101232.59;5072371;28;20366;-72
2021/03/26 10:32:27;;;;;;;65.70;28.80;;;;;;;6.54;85.75;101233.06;5073575;28;20497;-72
2021/03/26 10:34:53;;;;;;;69.18;28.02;;;;;;;6.54;85.93;101237.69;5084560;28;20028;-72
2021/03/26 10:37:31;;;;;;;73.40;35.88;;;;;;;6.49;85.65;101229.44;5087405;28;20434;-71
2021/03/26 10:40:50;;;;;;;63.20;26.98;;;;;;;6.36;86.13;101244.03;5092242;28;20555;-72
2021/03/26 10:43:37;;;;;;;62.00;26.20;;;;;;;6.22;86.42;101222.59;5042478;28;20029;-73
2021/03/26 10:46:04;;;;;;;64.63;27.45;;;;;;;6.13;86.81;101237.53;5065148;28;20180;-73
2021/03/26 10:48:43;;;;;;;80.22;30.83;;;;;;;6.11;86.99;101228.84;5074018;28;20094;-72
2021/03/26 10:51:17;;;;;;;83.43;34.10;;;;;;;6.09;87.15;101230.94;5068101;28;20088;-73
2021/03/26 10:53:49;;;;;;;72.80;29.60;;;;;;;6.13;87.36;101231.28;5071509;28;20035;-73
2021/03/26 10:56:27;;;;;;;;;;;;;;;6.14;87.47;101246.50;5089276;28;20036;-72
2021/03/26 10:58:59;;;;;;;85.80;35.88;;;;;;;6.14;87.29;101217.53;5092023;28;20304;-73
2021/03/26 11:01:25;;;;;;;84.82;36.42;;;;;;;6.15;87.73;101211.06;5073785;28;20024;-73
2021/03/26 11:04:09;;;;;;;53.70;23.85;;;;;;;6.20;87.82;101216.59;5056929;28;20044;-73
2021/03/26 11:06:39;;;;;;;82.40;33.25;;;;;;;6.17;87.89;101216.25;5055595;28;20516;-73
2021/03/26 11:09:08;;;;;;;68.40;26.38;;;;;;;6.19;87.86;101204.13;5088363;28;20051;-73
2021/03/26 11:11:44;;;;;;;67.38;30.92;;;;;;;6.21;87.85;101228.25;5069947;28;20489;-73
2021/03/26 11:14:18;;;;;;;67.82;26.83;;;;;;;6.19;88.09;101209.53;5068737;28;20392;-72
2021/03/26 11:16:49;;;;;;;75.80;32.13;;;;;;;6.21;88.07;101209.28;5083752;28;20031;-73
2021/03/26 11:19:29;;;;;;;72.53;28.60;;;;;;;6.28;87.99;101198.34;5092612;28;20110;-73
2021/03/26 11:21:57;;;;;;;77.95;31.27;;;;;;;6.31;88.08;101196.00;5081740;28;20111;-73
2021/03/26 11:24:23;;;;;;;63.20;27.60;;;;;;;6.36;87.89;101209.66;5088752;28;20086;-73
2021/03/26 11:27:14;;;;;;;69.75;27.77;;;;;;;6.39;88.01;101192.94;5089593;28;20032;-72
2021/03/26 11:29:40;;;;;;;67.15;25.98;;;;;;;6.45;87.68;101199.28;5091558;28;20036;-72
2021/03/26 11:32:09;;;;;;;64.72;27.45;;;;;;;6.45;88.03;101188.47;5069941;28;20055;-72
2021/03/26 11:34:47;;;;;;;67.15;27.35;;;;;;;6.47;87.73;101199.88;5060950;28;20028;-72
2021/03/26 11:37:17;;;;;;;75.43;30.65;;;;;;;6.51;87.46;101184.78;5084398;28;20028;-72
2021/03/26 11:39:51;;;;;;;79.88;32.42;;;;;;;6.52;87.33;101191.03;5090497;28;20373;-72
2021/03/26 11:42:16;;;;;;;52.15;23.83;;;;;;;6.51;87.43;101182.09;5084474;28;20086;-71
2021/03/26 11:45:03;;;;;;;70.18;26.92;;;;;;;6.52;87.14;101189.16;5085656;28;20020;-72
2021/03/26 11:47:32;;;;;;;62.08;26.83;;;;;;;6.47;87.01;101197.19;5059868;28;20051;-71
2021/03/26 11:50:23;;;;;;;57.97;23.48;;;;;;;6.45;87.14;101185.75;5073283;28;20028;-72
2021/03/26 11:52:57;;;;;;;69.38;27.88;;;;;;;6.43;86.86;101193.28;5086754;28;20020;-72
2021/03/26 11:55:29;;;;;;;59.70;23.85;;;;;;;6.38;86.76;101182.31;5089366;28;20035;-72
2021/03/26 11:57:58;;;;;;;73.40;31.07;;;;;;;6.35;87.03;101182.81;5053979;28;20032;-73
2021/03/26 12:00:26;;;;;;;64.80;26.10;;;;;;;6.32;86.97;101183.28;5076372;28;20089;-72